Time;durP1;ratioP1;P1;durP2;ratioP2;P2;SDS_P1;SDS_P2;PMS_P1;PMS_P2;Temp;Humidity;BMP_temperature;BMP_pressure;BME280_temperature;BME280_humidity;BME280_pressure;Samples;Min_cycle;Max_cycle;Signal;HPM_P1;HPM_P2
2021/01/19 00:01:20;;;;;;;3.83;1.90;;;2.10;99.90;;;;;;6186614;28;20233;-80
2021/01/19 00:04:21;;;;;;;2.10;1.60;;;2.10;99.90;;;;;;6210829;28;20204;-80
2021/01/19 00:07:23;;;;;;;3.10;1.43;;;2.10;99.90;;;;;;6196894;28;20569;-80
2021/01/19 00:10:25;;;;;;;3.27;1.40;;;2.00;99.90;;;;;;6211134;28;20204;-80
2021/01/19 00:13:27;;;;;;;1.70;1.23;;;2.00;99.90;;;;;;6210707;28;20573;-80
2021/01/19 00:16:29;;;;;;;1.97;1.10;;;2.00;99.90;;;;;;6194501;28;20201;-80
2021/01/19 00:19:31;;;;;;;2.37;1.30;;;2.00;99.90;;;;;;6213289;28;20216;-80
2021/01/19 00:22:33;;;;;;;1.60;0.90;;;2.00;99.90;;;;;;6213750;28;20251;-79
2021/01/19 00:25:42;;;;;;;1.93;1.13;;;2.00;99.90;;;;;;6215425;28;20250;-79
2021/01/19 00:28:43;;;;;;;1.93;1.10;;;2.00;99.90;;;;;;6213057;28;20213;-80
2021/01/19 00:31:45;;;;;;;2.23;1.00;;;2.00;99.90;;;;;;6212470;28;20208;-80
2021/01/19 00:34:47;;;;;;;1.20;0.97;;;2.00;99.90;;;;;;6213530;28;20204;-80
2021/01/19 00:37:49;;;;;;;3.77;1.20;;;1.90;99.90;;;;;;6214149;28;20207;-80
2021/01/19 00:40:51;;;;;;;1.70;0.87;;;1.90;99.90;;;;;;6213808;28;20228;-80
2021/01/19 00:43:53;;;;;;;1.40;0.83;;;1.90;99.90;;;;;;6196765;28;20228;-80
2021/01/19 00:46:55;;;;;;;2.27;1.17;;;1.90;99.90;;;;;;6216876;28;20211;-80
2021/01/19 00:49:56;;;;;;;1.67;1.10;;;2.00;99.90;;;;;;6194525;28;20228;-80
2021/01/19 00:52:59;;;;;;;1.10;1.00;;;2.00;99.90;;;;;;6199468;28;20208;-80
2021/01/19 00:56:01;;;;;;;2.73;1.03;;;2.00;99.90;;;;;;6171893;28;20213;-80
2021/01/19 00:59:04;;;;;;;2.97;1.00;;;2.00;99.90;;;;;;6177510;28;20217;-80
2021/01/19 01:02:07;;;;;;;1.93;0.90;;;2.00;99.90;;;;;;6177863;28;20754;-79
2021/01/19 01:05:10;;;;;;;2.17;0.93;;;2.00;99.90;;;;;;6177698;28;20255;-80
2021/01/19 01:08:12;;;;;;;2.93;1.13;;;2.00;99.90;;;;;;6176801;28;20209;-80
2021/01/19 01:11:14;;;;;;;1.43;0.73;;;2.00;99.90;;;;;;6180263;28;20932;-80
2021/01/19 01:14:16;;;;;;;1.10;0.87;;;2.00;99.90;;;;;;6194205;28;20213;-79
2021/01/19 01:17:18;;;;;;;0.77;0.77;;;2.00;99.90;;;;;;6177420;28;20696;-80
2021/01/19 01:20:20;;;;;;;2.47;1.17;;;1.90;99.90;;;;;;6177600;28;20256;-80
2021/01/19 01:23:22;;;;;;;1.10;0.77;;;1.90;99.90;;;;;;6193066;28;20284;-80
2021/01/19 01:26:23;;;;;;;0.80;0.80;;;1.90;99.90;;;;;;6177404;28;20600;-79
2021/01/19 01:29:25;;;;;;;0.80;0.80;;;1.90;99.90;;;;;;6200651;28;20247;-80
2021/01/19 01:32:27;;;;;;;3.03;1.00;;;1.90;99.90;;;;;;6201839;28;20865;-80
2021/01/19 01:35:29;;;;;;;2.17;0.97;;;1.80;99.90;;;;;;6202681;28;20201;-79
2021/01/19 01:38:39;;;;;;;2.03;0.97;;;1.90;99.90;;;;;;6207373;28;20574;-80
2021/01/19 01:41:41;;;;;;;1.87;0.90;;;1.90;99.90;;;;;;6206859;28;20221;-80
2021/01/19 01:44:43;;;;;;;1.60;0.77;;;1.90;99.90;;;;;;6207645;28;20268;-80
2021/01/19 01:47:47;;;;;;;1.17;0.70;;;1.90;99.90;;;;;;6192695;28;20227;-80
2021/01/19 01:50:51;;;;;;;1.07;0.70;;;1.80;99.90;;;;;;6190793;28;20201;-80
2021/01/19 01:53:56;;;;;;;1.20;0.70;;;1.80;99.90;;;;;;6191593;28;20198;-81
2021/01/19 01:56:58;;;;;;;1.57;0.87;;;1.80;99.90;;;;;;6207827;28;20280;-80
2021/01/19 02:00:02;;;;;;;2.00;1.07;;;1.80;99.90;;;;;;6192963;28;20671;-80
2021/01/19 02:03:05;;;;;;;2.17;0.90;;;1.80;99.90;;;;;;6192805;28;20584;-80
2021/01/19 02:06:07;;;;;;;2.03;0.90;;;1.80;99.90;;;;;;6190942;28;20214;-80
2021/01/19 02:09:21;;;;;;;0.80;0.70;;;1.90;99.90;;;;;;6192536;28;20208;-81
2021/01/19 02:12:32;;;;;;;0.77;0.50;;;1.90;99.90;;;;;;6192229;28;20201;-80
2021/01/19 02:16:18;;;;;;;2.83;1.00;;;1.90;99.90;;;;;;6211307;28;20216;-80
2021/01/19 02:19:38;;;;;;;1.13;0.90;;;1.90;99.90;;;;;;6219662;28;20213;-80
2021/01/19 02:22:58;;;;;;;3.20;1.27;;;1.80;99.90;;;;;;6188616;28;20229;-79
2021/01/19 02:26:03;;;;;;;0.87;0.67;;;1.80;99.90;;;;;;6171427;28;20236;-80
2021/01/19 02:29:26;;;;;;;1.07;0.97;;;1.80;99.90;;;;;;6187459;28;20273;-80
2021/01/19 02:32:58;;;;;;;0.87;0.80;;;1.80;99.90;;;;;;6185793;28;20205;-80
2021/01/19 02:36:14;;;;;;;0.70;0.70;;;1.80;99.90;;;;;;6185904;28;20209;-80
2021/01/19 02:39:27;;;;;;;1.50;1.00;;;1.70;99.90;;;;;;6191315;28;20679;-80
2021/01/19 02:43:09;;;;;;;0.87;0.80;;;1.60;99.90;;;;;;6186321;28;20699;-80
2021/01/19 02:46:11;;;;;;;1.63;0.80;;;1.60;99.90;;;;;;6185948;28;20247;-80
2021/01/19 02:49:13;;;;;;;1.93;0.67;;;1.60;99.90;;;;;;6188829;28;20205;-80
2021/01/19 02:52:16;;;;;;;1.43;0.90;;;1.60;99.90;;;;;;6171978;28;20419;-80
2021/01/19 02:55:18;;;;;;;0.90;0.70;;;1.70;99.90;;;;;;6172309;28;20738;-80
2021/01/19 02:58:41;;;;;;;1.07;0.80;;;1.70;99.90;;;;;;6170786;28;20208;-80
2021/01/19 03:01:51;;;;;;;1.23;0.70;;;1.70;99.90;;;;;;6187825;28;20605;-80
2021/01/19 03:04:58;;;;;;;1.00;0.83;;;1.80;99.90;;;;;;6188679;28;20202;-80
2021/01/19 03:08:04;;;;;;;2.63;1.00;;;1.70;99.90;;;;;;6187671;28;20224;-80
2021/01/19 03:11:07;;;;;;;1.47;1.10;;;1.70;99.90;;;;;;6172926;28;20209;-80
2021/01/19 03:14:11;;;;;;;1.83;0.90;;;1.80;99.90;;;;;;6188947;28;20224;-80
2021/01/19 03:17:14;;;;;;;1.17;0.90;;;1.80;99.90;;;;;;6187971;28;20660;-80
2021/01/19 03:20:16;;;;;;;2.47;0.80;;;1.80;99.90;;;;;;6208693;28;20709;-79
2021/01/19 03:23:18;;;;;;;1.37;1.03;;;1.80;99.90;;;;;;6213369;28;20215;-79
2021/01/19 03:26:20;;;;;;;0.70;0.70;;;1.80;99.90;;;;;;6229559;28;20224;-80
2021/01/19 03:29:22;;;;;;;0.83;0.60;;;1.80;99.90;;;;;;6212632;28;20202;-80
2021/01/19 03:32:24;;;;;;;1.70;0.80;;;1.80;99.90;;;;;;6213363;28;20242;-80
2021/01/19 03:35:25;;;;;;;1.27;0.90;;;1.90;99.90;;;;;;6213761;28;20286;-80
2021/01/19 03:38:27;;;;;;;1.60;0.80;;;1.80;99.90;;;;;;6215978;28;20204;-79
2021/01/19 03:41:29;;;;;;;1.47;0.53;;;1.80;99.90;;;;;;6214612;28;20240;-80
2021/01/19 03:44:31;;;;;;;1.23;0.77;;;1.80;99.90;;;;;;6214218;28;21087;-80
2021/01/19 03:47:35;;;;;;;0.90;0.63;;;1.70;99.90;;;;;;6216085;28;20241;-79
2021/01/19 03:50:37;;;;;;;1.03;0.70;;;1.80;99.90;;;;;;6213097;28;20236;-80
2021/01/19 03:53:38;;;;;;;1.63;0.87;;;1.80;99.90;;;;;;6201043;28;20236;-80
2021/01/19 03:56:40;;;;;;;1.20;0.80;;;1.90;99.90;;;;;;6185147;28;20236;-79
2021/01/19 03:59:42;;;;;;;2.50;0.90;;;1.90;99.90;;;;;;6183465;28;20682;-78
2021/01/19 04:02:44;;;;;;;2.20;1.03;;;1.90;99.90;;;;;;6184358;28;20240;-79
2021/01/19 04:05:46;;;;;;;1.30;0.80;;;2.00;99.90;;;;;;6183968;28;20213;-79
2021/01/19 04:08:48;;;;;;;1.60;1.10;;;2.00;99.90;;;;;;6184874;28;20208;-79
2021/01/19 04:11:50;;;;;;;1.17;0.87;;;2.00;99.90;;;;;;6183736;28;20604;-79
2021/01/19 04:14:51;;;;;;;1.50;1.13;;;2.00;99.90;;;;;;6190857;28;20213;-79
2021/01/19 04:17:54;;;;;;;2.43;1.30;;;2.00;99.90;;;;;;6200669;28;20870;-79
2021/01/19 04:20:55;;;;;;;2.30;1.10;;;1.90;99.90;;;;;;6184983;28;20255;-79
2021/01/19 04:23:57;;;;;;;1.20;0.80;;;1.90;99.90;;;;;;6185148;28;20205;-79
2021/01/19 04:26:59;;;;;;;1.40;1.10;;;1.80;99.90;;;;;;6183964;28;20237;-79
2021/01/19 04:30:07;;;;;;;1.73;1.10;;;1.70;99.90;;;;;;6185745;28;20287;-79
2021/01/19 04:33:13;;;;;;;0.97;0.70;;;1.70;99.90;;;;;;6169662;28;20209;-79
2021/01/19 04:36:19;;;;;;;1.47;0.90;;;1.70;99.90;;;;;;6178492;28;20201;-79
2021/01/19 04:39:21;;;;;;;1.63;1.10;;;1.70;99.90;;;;;;6177668;28;20233;-78
2021/01/19 04:42:24;;;;;;;3.40;1.00;;;1.70;99.90;;;;;;6176381;28;20233;-78
2021/01/19 04:45:26;;;;;;;1.37;1.00;;;1.70;99.90;;;;;;6177390;28;20208;-79
2021/01/19 04:48:29;;;;;;;1.40;0.87;;;1.70;99.90;;;;;;6182346;28;20300;-79
2021/01/19 04:51:34;;;;;;;2.20;1.20;;;1.70;99.90;;;;;;6203352;28;20768;-79
2021/01/19 04:55:02;;;;;;;1.70;0.73;;;1.60;99.90;;;;;;6210113;28;20206;-79
2021/01/19 04:58:07;;;;;;;1.47;1.07;;;1.50;99.90;;;;;;6212266;28;20212;-79
2021/01/19 05:01:20;;;;;;;2.10;1.10;;;1.50;99.90;;;;;;6212465;28;20379;-79
2021/01/19 05:04:32;;;;;;;1.23;1.00;;;1.50;99.90;;;;;;6210595;28;20218;-79
2021/01/19 05:07:34;;;;;;;4.50;1.00;;;1.40;99.90;;;;;;6212161;28;20696;-79
2021/01/19 05:10:37;;;;;;;1.00;0.87;;;1.30;99.90;;;;;;6227785;28;20302;-79
2021/01/19 05:13:52;;;;;;;1.23;1.00;;;1.30;99.90;;;;;;6199641;28;20255;-79
2021/01/19 05:16:56;;;;;;;2.97;0.90;;;1.30;99.90;;;;;;6189917;28;20215;-79
2021/01/19 05:20:00;;;;;;;1.73;0.90;;;1.30;99.90;;;;;;6195994;28;20604;-79
2021/01/19 05:23:02;;;;;;;2.33;1.00;;;1.40;99.90;;;;;;6184594;28;20612;-79
2021/01/19 05:26:06;;;;;;;0.80;0.70;;;1.40;99.90;;;;;;6188033;28;20237;-79
2021/01/19 05:29:09;;;;;;;1.47;1.10;;;1.40;99.90;;;;;;6188027;28;20201;-79
2021/01/19 05:32:11;;;;;;;2.03;0.80;;;1.40;99.90;;;;;;6186500;28;20376;-78
2021/01/19 05:35:19;;;;;;;1.07;0.80;;;1.40;99.90;;;;;;6186519;28;20689;-79
2021/01/19 05:38:20;;;;;;;1.10;0.80;;;1.30;99.90;;;;;;6188438;28;20210;-78
2021/01/19 05:41:38;;;;;;;1.03;0.73;;;1.40;99.90;;;;;;6187032;28;20781;-79
2021/01/19 05:44:39;;;;;;;1.77;0.80;;;1.40;99.90;;;;;;6186825;28;20222;-79
2021/01/19 05:47:43;;;;;;;3.27;0.97;;;1.50;99.90;;;;;;6187250;28;20626;-79
2021/01/19 05:50:48;;;;;;;1.40;0.80;;;1.50;99.90;;;;;;6195240;28;20313;-79
2021/01/19 05:53:51;;;;;;;1.47;0.87;;;1.30;99.90;;;;;;6210475;28;20228;-79
2021/01/19 05:57:14;;;;;;;3.13;0.93;;;1.20;99.90;;;;;;6211083;28;20274;-79
2021/01/19 06:00:17;;;;;;;2.37;0.83;;;1.10;99.90;;;;;;6227772;28;20726;-79
2021/01/19 06:03:19;;;;;;;3.10;0.80;;;1.30;99.90;;;;;;6210796;28;20232;-79
2021/01/19 06:06:26;;;;;;;1.00;0.90;;;1.40;99.90;;;;;;6211819;28;20205;-79
2021/01/19 06:09:28;;;;;;;0.87;0.67;;;1.30;99.90;;;;;;6196128;28;20196;-79
2021/01/19 06:12:34;;;;;;;2.13;0.97;;;1.30;99.90;;;;;;6194726;28;20291;-79
2021/01/19 06:15:36;;;;;;;1.73;0.93;;;1.30;99.90;;;;;;6203829;28;20224;-79
2021/01/19 06:18:41;;;;;;;2.03;0.97;;;1.30;99.90;;;;;;6203597;28;20293;-79
2021/01/19 06:21:43;;;;;;;2.53;1.00;;;1.40;99.90;;;;;;6188711;28;20229;-79
2021/01/19 06:24:45;;;;;;;3.17;0.93;;;1.40;99.90;;;;;;6188277;28;20233;-79
2021/01/19 06:27:47;;;;;;;2.10;0.83;;;1.50;99.90;;;;;;6187656;28;20232;-79
2021/01/19 06:30:49;;;;;;;0.80;0.80;;;1.50;99.90;;;;;;6189297;28;20205;-78
2021/01/19 06:33:51;;;;;;;1.83;1.00;;;1.50;99.90;;;;;;6190006;28;20217;-79
2021/01/19 06:36:53;;;;;;;4.73;1.13;;;1.50;99.90;;;;;;6188866;28;20209;-79
2021/01/19 06:39:57;;;;;;;2.10;1.27;;;1.50;99.90;;;;;;6189688;28;20205;-79
2021/01/19 06:43:04;;;;;;;2.40;0.90;;;1.60;99.90;;;;;;6190002;28;20244;-78
2021/01/19 06:46:08;;;;;;;0.80;0.80;;;1.60;99.90;;;;;;6221982;28;20315;-78
2021/01/19 06:49:14;;;;;;;1.57;0.60;;;1.60;99.90;;;;;;6211826;28;20204;-79
2021/01/19 06:52:17;;;;;;;2.27;0.80;;;1.60;99.90;;;;;;6212194;28;20268;-79
2021/01/19 06:55:38;;;;;;;2.17;0.90;;;1.60;99.90;;;;;;6209295;28;20250;-79
2021/01/19 06:58:46;;;;;;;0.77;0.73;;;1.50;99.90;;;;;;6209511;28;20197;-79
2021/01/19 07:01:57;;;;;;;0.70;0.70;;;1.50;99.90;;;;;;6208982;28;20698;-79
2021/01/19 07:05:10;;;;;;;1.63;1.00;;;1.50;99.90;;;;;;6209567;28;20273;-79
2021/01/19 07:08:19;;;;;;;1.73;0.80;;;1.50;99.90;;;;;;6209195;28;20282;-79
2021/01/19 07:11:36;;;;;;;2.87;1.00;;;1.50;99.90;;;;;;6211426;28;20213;-79
2021/01/19 07:14:43;;;;;;;1.13;0.90;;;1.60;99.90;;;;;;6197010;28;20217;-79
2021/01/19 07:18:13;;;;;;;1.73;1.00;;;1.70;99.90;;;;;;6186859;28;20236;-79
2021/01/19 07:21:17;;;;;;;1.70;1.10;;;1.80;99.90;;;;;;6208614;28;20725;-79
2021/01/19 07:24:26;;;;;;;1.57;1.10;;;1.80;99.90;;;;;;6210797;28;20219;-79
2021/01/19 07:27:29;;;;;;;1.53;1.03;;;1.90;99.90;;;;;;6208948;28;20253;-79
2021/01/19 07:30:31;;;;;;;2.13;1.43;;;2.00;99.90;;;;;;6210826;28;20216;-79
2021/01/19 07:33:35;;;;;;;2.17;1.23;;;2.10;99.90;;;;;;6208733;28;20259;-79
2021/01/19 07:36:37;;;;;;;1.93;1.30;;;2.20;99.90;;;;;;6210365;28;20208;-79
2021/01/19 07:39:39;;;;;;;2.47;1.50;;;2.30;99.90;;;;;;6209277;28;20590;-79
2021/01/19 07:42:41;;;;;;;2.03;1.10;;;2.40;99.90;;;;;;6211081;28;20229;-79
2021/01/19 07:45:54;;;;;;;4.43;1.97;;;2.50;99.90;;;;;;6193645;28;20227;-79
2021/01/19 07:49:04;;;;;;;2.30;1.50;;;2.60;99.90;;;;;;6201607;28;20214;-79
2021/01/19 07:52:14;;;;;;;1.37;1.20;;;2.70;99.90;;;;;;6192306;28;20216;-79
2021/01/19 07:55:21;;;;;;;1.50;1.30;;;2.80;99.90;;;;;;6202887;28;20206;-79
2021/01/19 07:58:24;;;;;;;2.27;1.03;;;2.90;99.90;;;;;;6186966;28;20264;-79
2021/01/19 08:01:32;;;;;;;2.03;1.23;;;3.00;99.90;;;;;;6186549;28;20217;-79
2021/01/19 08:04:36;;;;;;;1.63;1.53;;;3.10;99.90;;;;;;6186935;28;20770;-79
2021/01/19 08:07:45;;;;;;;2.87;1.30;;;3.20;99.90;;;;;;6188799;28;20250;-79
2021/01/19 08:10:57;;;;;;;1.67;1.27;;;3.30;99.90;;;;;;6187412;28;20627;-79
2021/01/19 08:14:00;;;;;;;2.37;1.10;;;3.30;99.90;;;;;;6197376;28;20288;-79
2021/01/19 08:17:04;;;;;;;2.70;1.27;;;3.50;99.90;;;;;;6212963;28;20268;-79
2021/01/19 08:20:07;;;;;;;1.87;1.50;;;3.60;99.90;;;;;;6183456;28;20237;-79
2021/01/19 08:23:17;;;;;;;2.53;1.70;;;3.70;99.90;;;;;;6177930;28;20233;-78
2021/01/19 08:26:20;;;;;;;2.10;1.20;;;3.70;99.90;;;;;;6161266;28;20738;-78
2021/01/19 08:29:23;;;;;;;1.33;1.23;;;3.80;99.90;;;;;;6177488;28;20201;-79
2021/01/19 08:32:25;;;;;;;3.23;1.43;;;3.80;99.90;;;;;;6176682;28;20304;-79
2021/01/19 08:35:29;;;;;;;1.50;1.27;;;3.90;99.90;;;;;;6178102;28;20212;-78
2021/01/19 08:38:32;;;;;;;2.57;1.40;;;3.90;99.90;;;;;;6181929;28;20221;-79
2021/01/19 08:41:43;;;;;;;1.50;1.40;;;4.00;99.90;;;;;;6161507;28;20210;-79
2021/01/19 08:44:54;;;;;;;1.30;0.90;;;4.00;99.90;;;;;;6176986;28;20307;-79
2021/01/19 08:48:01;;;;;;;1.53;1.20;;;4.10;99.90;;;;;;6178673;28;20264;-79
2021/01/19 08:51:03;;;;;;;1.57;1.03;;;4.20;99.90;;;;;;6206184;28;20200;-79
2021/01/19 08:54:09;;;;;;;1.67;1.30;;;4.30;99.90;;;;;;6209996;28;20215;-79
2021/01/19 08:57:20;;;;;;;1.33;0.80;;;4.40;99.90;;;;;;6209417;28;20204;-79
2021/01/19 09:00:42;;;;;;;1.83;1.10;;;4.50;99.90;;;;;;6211486;28;20205;-79
2021/01/19 09:04:21;;;;;;;3.70;1.17;;;4.60;99.90;;;;;;6199983;28;20220;-79
2021/01/19 09:07:28;;;;;;;1.87;1.10;;;4.70;99.90;;;;;;6096404;29;20211;-79
2021/01/19 09:10:30;;;;;;;3.27;1.37;;;4.70;99.80;;;;;;6097912;29;20219;-79
2021/01/19 09:13:37;;;;;;;2.40;1.77;;;4.80;99.90;;;;;;6118505;29;20204;-79
2021/01/19 09:16:40;;;;;;;1.60;0.93;;;5.00;99.80;;;;;;6134867;29;20218;-79
2021/01/19 09:19:41;;;;;;;1.70;1.20;;;5.00;98.50;;;;;;6134604;28;20299;-79
2021/01/19 09:22:43;;;;;;;2.73;0.97;;;5.10;98.60;;;;;;6118886;28;20620;-79
2021/01/19 09:25:47;;;;;;;1.43;1.13;;;5.20;98.40;;;;;;6135477;28;20238;-79
2021/01/19 09:28:49;;;;;;;2.10;1.20;;;5.40;98.40;;;;;;6119835;28;20216;-79
2021/01/19 09:31:51;;;;;;;2.63;0.87;;;5.60;98.00;;;;;;6119694;28;20734;-79
2021/01/19 09:34:53;;;;;;;1.67;0.90;;;5.70;97.40;;;;;;6119712;28;20201;-79
2021/01/19 09:37:55;;;;;;;1.77;0.93;;;5.70;97.10;;;;;;6136503;28;20217;-79
2021/01/19 09:40:57;;;;;;;1.17;0.90;;;5.70;96.70;;;;;;6134845;28;20211;-79
2021/01/19 09:43:59;;;;;;;1.33;0.87;;;5.80;96.40;;;;;;6198775;28;20735;-78
2021/01/19 09:47:03;;;;;;;1.53;0.80;;;5.90;95.70;;;;;;6220802;28;20298;-79
2021/01/19 09:50:10;;;;;;;1.00;0.80;;;6.00;95.40;;;;;;6198369;28;20222;-79
2021/01/19 09:53:25;;;;;;;2.30;1.17;;;6.20;95.80;;;;;;6196665;28;20302;-80
2021/01/19 09:56:27;;;;;;;1.33;0.90;;;6.50;96.30;;;;;;6181100;28;20212;-79
2021/01/19 09:59:33;;;;;;;1.03;0.77;;;6.60;94.90;;;;;;6185590;28;20298;-79
2021/01/19 10:02:38;;;;;;;2.50;0.90;;;6.80;93.90;;;;;;6186148;28;20232;-79
2021/01/19 10:05:40;;;;;;;2.10;0.83;;;7.10;93.10;;;;;;6186066;28;20208;-79
2021/01/19 10:08:45;;;;;;;0.90;0.70;;;7.30;94.10;;;;;;6185817;28;20712;-79
2021/01/19 10:11:56;;;;;;;1.40;0.67;;;7.30;92.90;;;;;;6187917;28;20217;-79
2021/01/19 10:14:58;;;;;;;1.10;0.63;;;7.50;92.10;;;;;;6186175;28;20698;-79
2021/01/19 10:18:00;;;;;;;1.13;0.70;;;7.40;91.30;;;;;;6186085;28;20212;-79
2021/01/19 10:21:02;;;;;;;0.90;0.60;;;7.50;91.00;;;;;;6186204;28;20220;-79
2021/01/19 10:24:05;;;;;;;1.63;0.80;;;7.60;90.00;;;;;;6188701;28;20216;-79
2021/01/19 10:27:10;;;;;;;2.20;1.00;;;7.60;86.90;;;;;;6186275;28;20264;-79
2021/01/19 10:30:14;;;;;;;2.50;1.00;;;7.50;88.70;;;;;;6186350;28;20217;-79
2021/01/19 10:33:26;;;;;;;1.87;0.70;;;7.50;87.50;;;;;;6186551;28;20237;-79
2021/01/19 10:36:37;;;;;;;0.80;0.57;;;7.70;88.90;;;;;;6186787;28;20209;-79
2021/01/19 10:39:51;;;;;;;2.13;0.83;;;7.80;86.40;;;;;;6187004;28;20201;-79
2021/01/19 10:42:53;;;;;;;0.90;0.73;;;7.80;89.50;;;;;;6185535;28;20263;-79
2021/01/19 10:45:55;;;;;;;2.27;0.80;;;7.80;85.90;;;;;;6187061;28;20197;-79
2021/01/19 10:49:06;;;;;;;2.53;0.60;;;7.90;85.10;;;;;;6188102;28;20232;-79
2021/01/19 10:52:12;;;;;;;3.00;0.80;;;7.90;86.10;;;;;;6187944;28;20213;-79
2021/01/19 10:55:14;;;;;;;2.07;0.80;;;8.00;85.70;;;;;;6187916;28;20745;-79
2021/01/19 10:58:16;;;;;;;2.63;0.80;;;8.20;82.80;;;;;;6189242;28;20205;-79
2021/01/19 11:01:18;;;;;;;2.80;0.80;;;8.30;83.80;;;;;;6203293;28;20227;-79
2021/01/19 11:04:20;;;;;;;1.17;0.80;;;8.40;81.50;;;;;;6189292;28;20213;-79
2021/01/19 11:07:22;;;;;;;1.90;0.67;;;8.50;80.00;;;;;;6188143;28;20201;-79
2021/01/19 11:10:26;;;;;;;1.20;0.50;;;8.50;76.30;;;;;;6186898;28;20319;-79
2021/01/19 11:13:29;;;;;;;3.53;0.80;;;8.30;74.90;;;;;;6189081;28;20256;-79
2021/01/19 11:16:37;;;;;;;1.67;0.50;;;8.40;76.50;;;;;;6186337;28;20205;-79
2021/01/19 11:19:40;;;;;;;1.30;0.70;;;8.50;81.50;;;;;;6202122;28;20636;-79
2021/01/19 11:22:46;;;;;;;1.07;0.60;;;8.50;74.60;;;;;;6183856;28;20573;-79
2021/01/19 11:25:48;;;;;;;1.40;0.70;;;8.50;72.10;;;;;;6185532;28;20229;-78
2021/01/19 11:28:50;;;;;;;1.83;0.70;;;8.60;73.20;;;;;;6183671;28;20232;-79
2021/01/19 11:31:52;;;;;;;1.53;0.50;;;8.80;73.90;;;;;;6184876;28;21015;-79
2021/01/19 11:34:54;;;;;;;1.27;0.60;;;8.70;72.10;;;;;;6185622;28;20209;-79
2021/01/19 11:37:56;;;;;;;0.50;0.50;;;8.70;74.00;;;;;;6185272;28;20202;-79
2021/01/19 11:40:58;;;;;;;0.77;0.50;;;8.70;71.90;;;;;;6184925;28;20664;-79
2021/01/19 11:44:00;;;;;;;0.57;0.50;;;8.90;72.50;;;;;;6185541;28;20229;-79
2021/01/19 11:47:02;;;;;;;1.27;0.70;;;9.20;69.80;;;;;;6185330;28;20208;-79
2021/01/19 11:50:20;;;;;;;1.53;0.90;;;9.10;69.00;;;;;;6184799;28;20218;-80
2021/01/19 11:53:23;;;;;;;1.47;0.60;;;8.90;68.80;;;;;;6184550;28;20197;-79
2021/01/19 11:56:49;;;;;;;2.30;0.53;;;9.00;69.90;;;;;;6184570;28;20292;-79
2021/01/19 11:59:53;;;;;;;0.73;0.50;;;9.00;68.60;;;;;;6183588;28;20840;-79
2021/01/19 12:02:55;;;;;;;1.20;0.43;;;9.10;70.90;;;;;;6177788;28;20283;-79
2021/01/19 12:05:56;;;;;;;0.63;0.50;;;9.30;71.70;;;;;;6193364;28;20216;-79
2021/01/19 12:08:58;;;;;;;3.70;0.70;;;9.30;69.80;;;;;;6178808;28;20303;-79
2021/01/19 12:12:00;;;;;;;1.83;0.77;;;9.40;68.30;;;;;;6177269;28;20277;-79
2021/01/19 12:15:04;;;;;;;2.57;0.60;;;9.50;66.80;;;;;;6177178;28;20211;-79
2021/01/19 12:18:06;;;;;;;2.50;0.80;;;9.50;66.00;;;;;;6207744;28;20293;-80
2021/01/19 12:21:09;;;;;;;1.20;0.50;;;9.60;66.70;;;;;;6186426;28;20835;-79
2021/01/19 12:24:11;;;;;;;2.27;0.80;;;9.60;68.10;;;;;;6189815;28;20209;-80
2021/01/19 12:27:13;;;;;;;1.47;0.73;;;9.50;66.10;;;;;;6188823;28;20245;-80
2021/01/19 12:30:15;;;;;;;1.00;0.70;;;9.10;68.20;;;;;;6188714;28;20251;-79
2021/01/19 12:33:19;;;;;;;1.17;0.60;;;8.80;68.80;;;;;;6189759;28;20552;-80
2021/01/19 12:36:21;;;;;;;2.27;0.80;;;8.60;69.50;;;;;;6189946;28;20733;-80
2021/01/19 12:39:23;;;;;;;1.87;0.80;;;8.50;69.90;;;;;;6194572;28;20284;-80
2021/01/19 12:42:25;;;;;;;0.80;0.77;;;8.40;70.20;;;;;;6190721;28;20259;-80
2021/01/19 12:45:28;;;;;;;1.20;0.70;;;8.40;69.20;;;;;;6178231;28;20694;-80
2021/01/19 12:48:30;;;;;;;2.30;1.00;;;8.30;70.10;;;;;;6183589;28;20215;-80
2021/01/19 12:51:32;;;;;;;1.07;0.70;;;8.20;72.10;;;;;;6206932;28;20204;-80
2021/01/19 12:54:34;;;;;;;1.63;0.70;;;8.10;73.30;;;;;;6211224;28;20537;-80
2021/01/19 12:57:37;;;;;;;1.40;0.47;;;7.90;74.20;;;;;;6208325;28;20194;-80
2021/01/19 13:00:39;;;;;;;1.20;0.60;;;7.70;78.60;;;;;;6210584;28;20579;-80
2021/01/19 13:03:42;;;;;;;1.60;0.80;;;7.50;80.30;;;;;;6203448;28;20303;-80
2021/01/19 13:06:48;;;;;;;1.87;0.70;;;7.20;87.40;;;;;;6185838;28;20205;-80
2021/01/19 13:09:52;;;;;;;1.23;0.70;;;7.00;89.50;;;;;;6185961;28;20216;-80
2021/01/19 13:12:54;;;;;;;1.53;0.60;;;6.80;90.90;;;;;;6187306;28;20233;-80
2021/01/19 13:15:57;;;;;;;0.77;0.50;;;6.50;92.30;;;;;;6188118;28;20294;-81
2021/01/19 13:18:59;;;;;;;1.77;0.60;;;6.30;94.20;;;;;;6198564;28;20741;-80
2021/01/19 13:22:14;;;;;;;0.90;0.50;;;6.10;95.60;;;;;;6228020;28;20297;-80
2021/01/19 13:25:16;;;;;;;1.10;0.90;;;5.90;97.00;;;;;;6209215;28;20207;-82
2021/01/19 13:28:18;;;;;;;1.70;0.60;;;5.80;98.50;;;;;;6207614;28;20220;-80
2021/01/19 13:31:24;;;;;;;1.00;0.77;;;5.60;99.90;;;;;;6214377;28;20234;-80
2021/01/19 13:34:27;;;;;;;2.00;0.60;;;5.50;99.90;;;;;;6218266;28;20275;-78
2021/01/19 13:37:29;;;;;;;1.20;0.53;;;5.50;99.90;;;;;;6216393;28;20207;-81
2021/01/19 13:40:31;;;;;;;2.50;0.70;;;5.50;99.90;;;;;;6218163;28;20240;-81
2021/01/19 13:43:33;;;;;;;1.33;0.60;;;5.50;99.90;;;;;;6217121;28;20241;-82
2021/01/19 13:46:35;;;;;;;1.30;0.60;;;5.40;99.90;;;;;;6213376;28;20727;-82
2021/01/19 13:49:39;;;;;;;2.20;0.80;;;5.30;99.90;;;;;;6214136;28;20218;-82
2021/01/19 13:52:41;;;;;;;2.07;0.90;;;5.30;99.90;;;;;;6218967;28;20210;-81
2021/01/19 13:55:44;;;;;;;1.13;0.73;;;5.30;99.90;;;;;;6218885;28;20212;-81
2021/01/19 13:58:46;;;;;;;1.60;0.70;;;5.20;99.90;;;;;;6219038;28;20222;-82
2021/01/19 14:01:49;;;;;;;0.90;0.60;;;5.10;99.90;;;;;;6216560;28;20267;-82
2021/01/19 14:04:51;;;;;;;0.70;0.47;;;5.20;99.90;;;;;;6208477;28;20213;-82
2021/01/19 14:07:53;;;;;;;0.60;0.50;;;5.20;99.90;;;;;;6208101;28;20371;-82
2021/01/19 14:10:58;;;;;;;3.30;0.70;;;5.10;99.90;;;;;;6208697;28;20213;-82
2021/01/19 14:14:05;;;;;;;0.70;0.47;;;4.90;99.90;;;;;;6198745;28;20566;-82
2021/01/19 14:17:09;;;;;;;1.77;0.60;;;4.80;99.90;;;;;;6183893;28;20234;-82
2021/01/19 14:20:32;;;;;;;1.20;0.70;;;4.70;99.90;;;;;;6193127;28;20252;-82
2021/01/19 14:23:35;;;;;;;0.83;0.70;;;4.50;99.90;;;;;;6198837;28;20240;-82
2021/01/19 14:26:37;;;;;;;1.90;0.70;;;4.40;99.90;;;;;;6202546;28;20264;-83
2021/01/19 14:29:39;;;;;;;1.03;0.60;;;4.30;99.90;;;;;;6197809;28;20208;-82
2021/01/19 14:32:48;;;;;;;3.63;0.70;;;4.20;99.90;;;;;;6167009;28;20557;-82
2021/01/19 14:35:52;;;;;;;1.23;0.80;;;4.20;99.90;;;;;;6188078;28;20316;-82
2021/01/19 14:38:54;;;;;;;1.30;0.80;;;4.10;99.90;;;;;;6201441;28;20208;-81
2021/01/19 14:41:55;;;;;;;5.17;2.87;;;4.10;99.90;;;;;;6192842;28;20212;-81
2021/01/19 14:44:57;;;;;;;2.27;0.90;;;4.10;99.90;;;;;;6192556;28;20425;-81
2021/01/19 14:47:59;;;;;;;0.97;0.70;;;4.00;99.90;;;;;;6208056;28;20200;-81
2021/01/19 14:51:01;;;;;;;2.10;1.33;;;4.00;99.90;;;;;;6184976;28;20701;-81
2021/01/19 14:54:05;;;;;;;2.47;1.00;;;3.90;99.90;;;;;;6186715;28;20198;-81
2021/01/19 14:57:07;;;;;;;1.40;0.80;;;3.80;99.90;;;;;;6187055;28;20209;-81
2021/01/19 15:00:10;;;;;;;2.57;0.77;;;3.80;99.90;;;;;;6185161;28;20944;-81
2021/01/19 15:03:12;;;;;;;1.73;0.90;;;3.70;99.90;;;;;;6188213;28;20916;-81
2021/01/19 15:06:14;;;;;;;2.60;1.00;;;3.50;99.90;;;;;;6187565;28;20205;-81
2021/01/19 15:09:18;;;;;;;2.13;1.27;;;3.40;99.90;;;;;;6188224;28;20344;-81
2021/01/19 15:12:20;;;;;;;0.70;0.60;;;3.20;99.90;;;;;;6171218;28;20205;-81
2021/01/19 15:15:23;;;;;;;0.80;0.80;;;3.10;99.90;;;;;;6206456;28;20617;-81
2021/01/19 15:18:25;;;;;;;0.83;0.67;;;3.00;99.90;;;;;;6207870;28;20216;-81
2021/01/19 15:21:26;;;;;;;2.00;0.70;;;2.90;99.90;;;;;;6191294;28;20217;-82
2021/01/19 15:24:30;;;;;;;1.73;0.80;;;2.70;99.90;;;;;;6185941;28;20647;-79
2021/01/19 15:27:33;;;;;;;3.60;0.77;;;2.60;99.90;;;;;;6179001;28;20523;-80
2021/01/19 15:30:36;;;;;;;0.80;0.60;;;2.50;99.90;;;;;;6172593;28;20617;-79
2021/01/19 15:33:38;;;;;;;2.20;0.70;;;2.40;99.90;;;;;;6192659;28;20215;-80
2021/01/19 15:36:40;;;;;;;1.50;0.90;;;2.30;99.90;;;;;;6177105;28;20249;-80
2021/01/19 15:39:41;;;;;;;1.87;0.90;;;2.20;99.90;;;;;;6182491;28;20205;-79
2021/01/19 15:42:43;;;;;;;1.93;1.00;;;2.10;99.90;;;;;;6179289;28;20566;-79
2021/01/19 15:45:45;;;;;;;1.13;0.63;;;2.00;99.90;;;;;;6179915;28;20204;-79
2021/01/19 15:48:48;;;;;;;1.67;0.80;;;1.90;99.90;;;;;;6178881;28;20219;-79
2021/01/19 15:51:50;;;;;;;1.93;0.90;;;1.90;99.90;;;;;;6178859;28;20296;-79
2021/01/19 15:54:52;;;;;;;2.63;1.27;;;1.90;99.90;;;;;;6177303;28;20622;-79
2021/01/19 15:57:54;;;;;;;1.20;1.00;;;1.80;99.90;;;;;;6178959;28;20212;-79
2021/01/19 16:00:59;;;;;;;2.00;1.27;;;1.80;99.90;;;;;;6178045;28;20210;-79
2021/01/19 16:04:02;;;;;;;2.97;1.10;;;1.80;99.90;;;;;;6181139;28;20233;-79
2021/01/19 16:07:05;;;;;;;1.27;0.80;;;1.80;99.90;;;;;;6187275;28;20766;-80
2021/01/19 16:10:07;;;;;;;2.13;1.00;;;1.80;99.90;;;;;;6187234;28;20687;-79
2021/01/19 16:13:09;;;;;;;1.20;0.90;;;1.80;99.90;;;;;;6189228;28;20279;-80
2021/01/19 16:16:25;;;;;;;2.80;0.80;;;1.80;99.90;;;;;;6187631;28;20212;-79